createdAt,value
2023-01-17T00:02:33.106Z,4.92
2023-01-17T00:05:59.343Z,5.02
2023-01-17T00:09:23.205Z,5.08
2023-01-17T00:12:31.536Z,5.07
2023-01-17T00:15:40.200Z,4.85
2023-01-17T00:19:05.950Z,4.90
2023-01-17T00:22:38.930Z,4.96
2023-01-17T00:26:02.754Z,4.96
2023-01-17T00:29:07.732Z,4.95
2023-01-17T00:32:12.829Z,4.93
2023-01-17T00:35:19.403Z,4.91
2023-01-17T00:38:27.513Z,4.87
2023-01-17T00:41:32.988Z,4.81
2023-01-17T00:44:57.164Z,4.70
2023-01-17T00:48:21.468Z,4.85
2023-01-17T00:51:47.505Z,4.67
2023-01-17T00:55:11.580Z,4.81
2023-01-17T00:58:35.496Z,4.83
2023-01-17T01:01:59.759Z,4.88
2023-01-17T01:05:24.085Z,4.89
2023-01-17T01:08:49.049Z,4.90
2023-01-17T01:12:12.992Z,4.73
2023-01-17T01:15:36.633Z,4.73
2023-01-17T01:19:00.749Z,4.89
2023-01-17T01:22:24.902Z,4.98
2023-01-17T01:25:49.024Z,4.96
2023-01-17T01:29:13.129Z,4.93
2023-01-17T01:32:37.392Z,4.88
2023-01-17T01:35:43.211Z,4.91
2023-01-17T01:38:50.527Z,4.90
2023-01-17T01:41:55.843Z,4.99
2023-01-17T01:45:01.642Z,4.96
2023-01-17T01:48:35.052Z,4.93
2023-01-17T01:51:44.791Z,4.99
2023-01-17T01:54:59.299Z,5.09
2023-01-17T01:58:11.685Z,5.10
2023-01-17T02:01:18.233Z,4.90
2023-01-17T02:04:25.420Z,5.00
2023-01-17T02:07:35.939Z,4.98
2023-01-17T02:10:44.324Z,4.90
2023-01-17T02:13:49.698Z,5.07
2023-01-17T02:16:57.863Z,5.06
2023-01-17T02:20:36.936Z,5.06
2023-01-17T02:24:00.378Z,4.91
2023-01-17T02:27:24.062Z,5.09
2023-01-17T02:30:39.772Z,5.04
2023-01-17T02:33:57.754Z,5.17
2023-01-17T02:37:35.327Z,5.22
2023-01-17T02:40:52.503Z,5.20
2023-01-17T02:43:58.161Z,5.20
2023-01-17T02:47:27.467Z,5.21
2023-01-17T02:50:54.584Z,5.13
2023-01-17T02:54:21.373Z,5.20
2023-01-17T02:57:58.720Z,5.10
2023-01-17T03:01:19.724Z,5.12
2023-01-17T03:04:35.062Z,5.15
2023-01-17T03:07:43.239Z,5.09
2023-01-17T03:10:49.085Z,5.10
2023-01-17T03:13:57.320Z,4.99
2023-01-17T03:17:02.674Z,5.04
2023-01-17T03:20:08.908Z,5.13
2023-01-17T03:23:14.467Z,4.98
2023-01-17T03:26:20.178Z,5.10
2023-01-17T03:29:25.903Z,5.10
2023-01-17T03:32:31.801Z,5.07
2023-01-17T03:35:37.718Z,4.97
2023-01-17T03:38:43.004Z,5.03
2023-01-17T03:41:48.527Z,5.01
2023-01-17T03:44:54.107Z,4.90
2023-01-17T03:48:00.475Z,5.04
2023-01-17T03:51:06.275Z,4.92
2023-01-17T03:54:11.832Z,4.89
2023-01-17T03:57:19.739Z,4.78
2023-01-17T04:00:25.368Z,4.80
2023-01-17T04:03:31.432Z,4.70
2023-01-17T04:06:36.884Z,4.63
2023-01-17T04:09:42.448Z,4.58
2023-01-17T04:12:48.134Z,4.51
2023-01-17T04:15:53.813Z,4.38
2023-01-17T04:18:59.973Z,4.40
2023-01-17T04:22:05.595Z,4.37
2023-01-17T04:25:11.733Z,4.32
2023-01-17T04:28:17.262Z,4.28
2023-01-17T04:31:23.078Z,4.27
2023-01-17T04:34:28.638Z,4.30
2023-01-17T04:37:34.050Z,4.44
2023-01-17T04:40:39.449Z,4.37
2023-01-17T04:43:44.765Z,4.38
2023-01-17T04:46:50.112Z,4.39
2023-01-17T04:49:55.849Z,4.30
2023-01-17T04:53:01.280Z,4.33
2023-01-17T04:56:07.254Z,4.45
2023-01-17T04:59:12.687Z,4.53
2023-01-17T05:02:18.107Z,4.43
2023-01-17T05:05:23.727Z,4.45
2023-01-17T05:08:29.206Z,4.41
2023-01-17T05:11:35.025Z,4.52
2023-01-17T05:14:40.680Z,4.55
2023-01-17T05:17:46.863Z,4.53
2023-01-17T05:20:52.358Z,4.53
2023-01-17T05:23:57.693Z,4.51
2023-01-17T05:27:06.493Z,4.43
2023-01-17T05:30:12.632Z,4.30
2023-01-17T05:33:17.847Z,4.33
2023-01-17T05:36:23.046Z,4.26
2023-01-17T05:39:28.251Z,4.36
2023-01-17T05:42:34.190Z,4.32
2023-01-17T05:45:39.507Z,4.22
2023-01-17T05:48:44.754Z,4.17
2023-01-17T05:51:50.549Z,4.15
2023-01-17T05:54:55.755Z,4.11
2023-01-17T05:58:02.533Z,4.05
2023-01-17T06:01:07.913Z,4.10
2023-01-17T06:04:13.719Z,4.24
2023-01-17T06:07:19.098Z,4.12
2023-01-17T06:10:25.393Z,4.17
2023-01-17T06:13:31.246Z,4.20
2023-01-17T06:16:36.852Z,4.23
2023-01-17T06:19:42.637Z,4.29
2023-01-17T06:22:48.653Z,4.33
2023-01-17T06:25:54.038Z,4.28
2023-01-17T06:28:59.538Z,4.24
2023-01-17T06:32:05.551Z,4.24
2023-01-17T06:35:10.668Z,4.05
2023-01-17T06:38:16.593Z,4.12
2023-01-17T06:41:23.574Z,4.06
2023-01-17T06:44:29.305Z,3.97
2023-01-17T06:47:39.079Z,4.12
2023-01-17T06:50:44.869Z,4.23
2023-01-17T06:53:50.071Z,4.27
2023-01-17T06:56:55.491Z,4.28
2023-01-17T07:00:01.001Z,3.94
2023-01-17T07:03:15.641Z,4.09
2023-01-17T07:06:21.607Z,4.15
2023-01-17T07:09:27.591Z,4.24
2023-01-17T07:12:32.969Z,4.19
2023-01-17T07:15:38.577Z,4.21
2023-01-17T07:18:44.194Z,4.19
2023-01-17T07:21:53.783Z,4.26
2023-01-17T07:24:59.184Z,4.26
2023-01-17T07:28:04.915Z,4.19
2023-01-17T07:31:10.802Z,4.21
2023-01-17T07:34:16.367Z,4.15
2023-01-17T07:37:22.274Z,4.21
2023-01-17T07:40:27.743Z,4.20
2023-01-17T07:43:33.151Z,4.12
2023-01-17T07:46:38.716Z,4.12
2023-01-17T07:49:44.179Z,4.24
2023-01-17T07:52:51.501Z,4.24
2023-01-17T07:56:01.964Z,4.21
2023-01-17T07:59:07.571Z,4.25
2023-01-17T08:02:22.040Z,4.37
2023-01-17T08:05:28.806Z,4.27
2023-01-17T08:08:34.685Z,4.24
2023-01-17T08:11:40.101Z,4.28
2023-01-17T08:14:45.856Z,4.19
2023-01-17T08:17:54.923Z,4.33
2023-01-17T08:21:00.438Z,4.33
2023-01-17T08:24:05.749Z,4.40
2023-01-17T08:27:11.483Z,4.49
2023-01-17T08:30:17.605Z,4.46
2023-01-17T08:33:23.368Z,4.59
2023-01-17T08:36:31.420Z,4.58
2023-01-17T08:39:36.860Z,4.57
2023-01-17T08:42:44.537Z,4.31
2023-01-17T08:45:50.588Z,4.45
2023-01-17T08:48:59.056Z,4.54
2023-01-17T08:52:05.817Z,4.55
2023-01-17T08:55:11.901Z,4.39
2023-01-17T08:58:17.505Z,4.38
2023-01-17T09:01:23.091Z,4.33
2023-01-17T09:04:28.495Z,4.35
2023-01-17T09:07:33.867Z,4.28
2023-01-17T09:10:39.434Z,4.26
2023-01-17T09:13:45.147Z,4.41
2023-01-17T09:16:51.327Z,4.28
2023-01-17T09:19:56.806Z,4.28
2023-01-17T09:23:04.934Z,4.39
2023-01-17T09:26:23.602Z,4.45
2023-01-17T09:29:28.758Z,4.36
2023-01-17T09:32:33.828Z,4.41
2023-01-17T09:35:39.302Z,4.19
2023-01-17T09:38:45.558Z,4.33
2023-01-17T09:42:36.704Z,4.37
2023-01-17T09:45:42.685Z,4.29
2023-01-17T09:48:49.972Z,4.24
2023-01-17T09:51:55.603Z,4.23
2023-01-17T09:55:02.227Z,4.27
2023-01-17T09:58:19.911Z,4.40
2023-01-17T10:01:48.072Z,4.41
2023-01-17T10:05:30.789Z,4.35
2023-01-17T10:08:58.109Z,4.32
2023-01-17T10:12:09.272Z,4.34
2023-01-17T10:15:43.381Z,4.43
2023-01-17T10:19:13.333Z,4.44
2023-01-17T10:22:54.641Z,4.38
2023-01-17T10:26:10.290Z,4.44
2023-01-17T10:29:21.051Z,4.38
2023-01-17T10:32:33.213Z,4.46
2023-01-17T10:35:52.553Z,4.40
2023-01-17T10:39:02.993Z,4.45
2023-01-17T10:42:23.681Z,4.50
2023-01-17T10:45:40.702Z,4.50
2023-01-17T10:48:49.880Z,4.51
2023-01-17T10:52:32.525Z,4.41
2023-01-17T10:55:56.287Z,4.34
2023-01-17T10:59:13.689Z,4.47
2023-01-17T11:02:26.549Z,4.38
2023-01-17T11:05:35.617Z,4.47
2023-01-17T11:08:52.007Z,4.37
2023-01-17T11:11:57.530Z,4.25
2023-01-17T11:15:09.118Z,4.37
2023-01-17T11:18:20.167Z,4.39
2023-01-17T11:21:26.164Z,4.41
2023-01-17T11:24:48.494Z,4.43
2023-01-17T11:28:19.812Z,4.52
2023-01-17T11:31:27.933Z,4.51
2023-01-17T11:34:33.618Z,4.49
2023-01-17T11:37:39.521Z,4.54
2023-01-17T11:40:47.677Z,4.45
2023-01-17T11:43:56.262Z,4.40
2023-01-17T11:47:11.898Z,4.37
2023-01-17T11:50:26.270Z,4.47
2023-01-17T11:53:37.239Z,4.33
2023-01-17T11:56:46.717Z,4.28
2023-01-17T12:00:19.845Z,4.46
2023-01-17T12:03:45.840Z,4.36
2023-01-17T12:07:15.785Z,4.36
2023-01-17T12:11:06.955Z,4.30
2023-01-17T12:14:30.472Z,4.35
2023-01-17T12:17:51.633Z,4.20
2023-01-17T12:21:23.220Z,4.21
2023-01-17T12:24:47.668Z,4.21
2023-01-17T12:28:04.118Z,4.38
2023-01-17T12:31:23.870Z,4.44
2023-01-17T12:34:41.447Z,4.44
2023-01-17T12:38:04.924Z,4.48
2023-01-17T12:41:34.503Z,4.37
2023-01-17T12:44:52.116Z,4.51
2023-01-17T12:48:10.813Z,4.72
2023-01-17T12:51:27.901Z,4.59
2023-01-17T12:54:42.193Z,4.65
2023-01-17T12:57:56.735Z,4.70
2023-01-17T13:01:07.824Z,4.61
2023-01-17T13:04:23.220Z,4.56
2023-01-17T13:07:57.077Z,4.74
2023-01-17T13:11:29.000Z,4.79
2023-01-17T13:14:34.650Z,4.80
2023-01-17T13:17:48.533Z,4.94
2023-01-17T13:21:32.495Z,5.02
2023-01-17T13:25:03.172Z,4.89
2023-01-17T13:28:32.893Z,4.95
2023-01-17T13:31:59.432Z,4.95
2023-01-17T13:35:07.435Z,4.95
2023-01-17T13:38:43.463Z,4.99
2023-01-17T13:42:11.213Z,5.07
2023-01-17T13:45:28.170Z,4.98
2023-01-17T13:48:38.643Z,5.01
2023-01-17T13:52:11.198Z,5.10
2023-01-17T13:55:46.550Z,5.02
2023-01-17T13:58:54.894Z,4.92
2023-01-17T14:02:00.373Z,4.88
2023-01-17T14:05:09.796Z,4.94
2023-01-17T14:08:22.403Z,4.93
2023-01-17T14:11:27.281Z,4.90
2023-01-17T14:14:44.485Z,4.97
2023-01-17T14:17:56.315Z,4.76
2023-01-17T14:21:31.904Z,4.77
2023-01-17T14:25:00.843Z,4.88
2023-01-17T14:28:31.026Z,4.81
2023-01-17T14:31:38.175Z,4.82
2023-01-17T14:34:47.182Z,4.84
2023-01-17T14:37:54.459Z,4.91
2023-01-17T14:41:07.961Z,4.87
2023-01-17T14:44:13.756Z,4.89
2023-01-17T14:47:19.507Z,5.03
2023-01-17T14:50:29.825Z,4.92
2023-01-17T14:53:35.439Z,4.90
2023-01-17T14:56:40.786Z,4.92
2023-01-17T14:59:46.754Z,4.92
2023-01-17T15:02:54.099Z,4.89
2023-01-17T15:06:13.287Z,4.95
2023-01-17T15:09:28.928Z,4.85
2023-01-17T15:12:37.139Z,4.90
2023-01-17T15:15:42.611Z,4.85
2023-01-17T15:18:49.086Z,4.84
2023-01-17T15:21:55.385Z,4.75
2023-01-17T15:25:01.251Z,4.73
2023-01-17T15:28:13.006Z,4.69
2023-01-17T15:31:22.398Z,4.81
2023-01-17T15:34:40.132Z,4.80
2023-01-17T15:37:46.026Z,4.66
2023-01-17T15:40:51.556Z,4.67
2023-01-17T15:43:57.870Z,4.73
2023-01-17T15:47:04.950Z,4.59
2023-01-17T15:50:30.470Z,4.56
2023-01-17T15:53:39.117Z,4.73
2023-01-17T15:56:45.824Z,4.66
2023-01-17T16:00:24.591Z,4.70
2023-01-17T16:03:31.367Z,4.75
2023-01-17T16:06:45.761Z,4.85
2023-01-17T16:09:51.390Z,4.88
2023-01-17T16:12:57.036Z,4.67
2023-01-17T16:16:14.518Z,4.82
2023-01-17T16:19:21.619Z,4.87
2023-01-17T16:22:27.605Z,4.92
2023-01-17T16:25:33.170Z,4.98
2023-01-17T16:28:39.411Z,4.94
2023-01-17T16:31:45.196Z,4.98
2023-01-17T16:34:50.437Z,5.03
2023-01-17T16:37:59.723Z,5.06
2023-01-17T16:41:05.750Z,5.09
2023-01-17T16:44:11.553Z,5.04
2023-01-17T16:47:17.038Z,4.98
2023-01-17T16:50:25.216Z,5.06
2023-01-17T16:53:30.814Z,5.02
2023-01-17T16:56:36.099Z,4.92
2023-01-17T16:59:50.661Z,5.01
2023-01-17T17:02:56.409Z,5.03
2023-01-17T17:06:02.124Z,4.87
2023-01-17T17:09:07.726Z,4.81
2023-01-17T17:12:13.562Z,4.64
2023-01-17T17:15:19.008Z,4.49
2023-01-17T17:18:24.667Z,4.47
2023-01-17T17:21:32.230Z,4.59
2023-01-17T17:24:37.529Z,4.55
2023-01-17T17:27:43.900Z,4.82
2023-01-17T17:30:49.559Z,4.64
2023-01-17T17:34:01.315Z,4.65
2023-01-17T17:37:07.122Z,4.77
2023-01-17T17:40:12.615Z,4.83
2023-01-17T17:43:18.414Z,4.86
2023-01-17T17:46:27.483Z,4.56
2023-01-17T17:49:33.110Z,4.50
2023-01-17T17:52:38.682Z,4.69
2023-01-17T17:55:44.121Z,4.63
2023-01-17T17:58:49.392Z,4.56
2023-01-17T18:01:55.043Z,4.62
2023-01-17T18:05:00.376Z,4.59
2023-01-17T18:08:06.320Z,4.62
2023-01-17T18:11:18.895Z,4.66
2023-01-17T18:14:24.766Z,4.64
2023-01-17T18:17:30.077Z,4.70
2023-01-17T18:20:35.651Z,4.66
2023-01-17T18:23:44.138Z,4.78
2023-01-17T18:26:57.872Z,4.80
2023-01-17T18:30:03.913Z,4.89
2023-01-17T18:33:10.974Z,5.08
2023-01-17T18:36:16.153Z,5.07
2023-01-17T18:39:24.795Z,4.79
2023-01-17T18:42:30.325Z,4.87
2023-01-17T18:45:35.776Z,4.64
2023-01-17T18:48:41.852Z,4.48
2023-01-17T18:51:51.582Z,4.50
2023-01-17T18:54:57.396Z,4.32
2023-01-17T18:58:02.823Z,4.03
2023-01-17T19:01:14.928Z,4.04
2023-01-17T19:04:20.405Z,4.15
2023-01-17T19:07:29.271Z,3.94
2023-01-17T19:10:34.881Z,4.29
2023-01-17T19:13:42.218Z,4.28
2023-01-17T19:16:47.776Z,4.25
2023-01-17T19:19:53.083Z,4.20
2023-01-17T19:22:59.418Z,4.23
2023-01-17T19:26:08.482Z,4.19
2023-01-17T19:29:15.064Z,4.24
2023-01-17T19:32:20.285Z,4.03
2023-01-17T19:35:25.331Z,4.07
2023-01-17T19:38:30.977Z,4.02
2023-01-17T19:41:42.287Z,4.21
2023-01-17T19:44:47.925Z,4.23
2023-01-17T19:47:53.609Z,4.41
2023-01-17T19:51:05.195Z,4.32
2023-01-17T19:54:10.890Z,4.26
2023-01-17T19:57:16.237Z,4.28
2023-01-17T20:00:30.076Z,4.39
2023-01-17T20:03:38.047Z,4.44
2023-01-17T20:06:43.702Z,4.16
2023-01-17T20:09:49.719Z,4.17
2023-01-17T20:12:56.014Z,4.21
2023-01-17T20:16:07.071Z,4.06
2023-01-17T20:19:13.821Z,3.98
2023-01-17T20:22:19.883Z,3.96
2023-01-17T20:25:27.704Z,4.05
2023-01-17T20:28:36.626Z,4.36
2023-01-17T20:31:44.572Z,4.36
2023-01-17T20:34:52.501Z,4.50
2023-01-17T20:37:59.528Z,4.23
2023-01-17T20:41:06.472Z,4.17
2023-01-17T20:44:15.735Z,4.31
2023-01-17T20:47:21.552Z,4.20
2023-01-17T20:50:27.709Z,4.21
2023-01-17T20:53:35.307Z,4.05
2023-01-17T20:56:41.470Z,4.16
2023-01-17T20:59:48.422Z,3.97
2023-01-17T21:02:53.854Z,3.93
2023-01-17T21:06:05.108Z,4.09
2023-01-17T21:09:14.607Z,3.97
2023-01-17T21:12:21.720Z,3.89
2023-01-17T21:15:27.426Z,4.15
2023-01-17T21:18:33.084Z,4.25
2023-01-17T21:21:38.338Z,4.23
2023-01-17T21:24:43.748Z,4.28
2023-01-17T21:27:49.188Z,4.40
2023-01-17T21:30:55.763Z,4.24
2023-01-17T21:34:05.231Z,4.36
2023-01-17T21:37:10.866Z,4.37
2023-01-17T21:40:18.704Z,4.47
2023-01-17T21:43:24.488Z,4.45
2023-01-17T21:46:30.625Z,4.44
2023-01-17T21:49:36.243Z,4.39
2023-01-17T21:52:41.321Z,4.41
2023-01-17T21:56:05.248Z,4.51
2023-01-17T21:59:10.630Z,4.41
2023-01-17T22:02:15.912Z,4.36
2023-01-17T22:05:21.344Z,4.39
2023-01-17T22:08:32.327Z,4.44
2023-01-17T22:11:37.586Z,4.45
2023-01-17T22:14:42.915Z,4.46
2023-01-17T22:17:48.677Z,4.44
2023-01-17T22:20:54.221Z,4.43
2023-01-17T22:24:00.589Z,4.42
2023-01-17T22:27:10.290Z,4.40
2023-01-17T22:30:16.426Z,4.36
2023-01-17T22:33:22.522Z,4.17
2023-01-17T22:36:29.793Z,4.27
2023-01-17T22:39:35.488Z,4.27
2023-01-17T22:42:40.730Z,4.15
2023-01-17T22:45:46.761Z,4.16
2023-01-17T22:48:53.363Z,4.26
2023-01-17T22:51:59.030Z,4.25
2023-01-17T22:55:05.665Z,4.17
2023-01-17T22:58:11.376Z,4.12
2023-01-17T23:01:28.355Z,4.04
2023-01-17T23:04:33.882Z,3.98
2023-01-17T23:07:45.094Z,3.97
2023-01-17T23:11:08.724Z,3.94
2023-01-17T23:14:23.084Z,4.00
2023-01-17T23:17:47.370Z,3.95
2023-01-17T23:20:52.567Z,4.07
2023-01-17T23:23:57.938Z,3.99
2023-01-17T23:27:22.055Z,4.00
2023-01-17T23:30:38.846Z,3.88
2023-01-17T23:33:44.057Z,3.84
2023-01-17T23:36:49.134Z,4.03
2023-01-17T23:39:54.391Z,3.99
2023-01-17T23:43:17.651Z,3.89
2023-01-17T23:46:24.753Z,3.73
2023-01-17T23:49:31.504Z,3.89
2023-01-17T23:52:36.904Z,3.94
2023-01-17T23:55:47.314Z,3.96
2023-01-17T23:58:52.482Z,3.78
